Buoy 41560

sailwx.info

Track history (hours):
 
Tides and Currents Weather Stations Pressure Air Temp Water Temp Dewpoint Dewpoint Depression Visibility Wind Speed Wind Dir Waves Ship Positions

Drifting buoy 41560

Last reported at 2015-Apr-30 17:00 UTC. Time now 2015-Aug-31 23:55 UTC.
Position N 31°29' W 028°28'.
Warning: this ship's position is months out of date.

Barometer 1021.6 mb

Date/timePositionNaut miles runAvg speedWind from/ knotsBaromVisibWave heightAir tempDewpointWater temp
2015-Apr-30 17:00N 31°29' W 028°28'0 0.4 1021.6
2015-Apr-30 16:00N 31°29' W 028°28'0 0.0 1022.9
2015-Apr-30 15:00N 31°29' W 028°28'1 0.3 1022.4
2015-Apr-30 12:00N 31°28' W 028°29'1 0.6 1023.2
2015-Apr-30 11:00N 31°29' W 028°30'1 0.3 1022.5
2015-Apr-30 08:00N 31°28' W 028°29'0 0.4 1021.9
2015-Apr-30 07:00N 31°28' W 028°29'1 0.7 1021.8
2015-Apr-30 06:00N 31°28' W 028°30'0 0.3 1022.0
2015-Apr-30 05:00N 31°28' W 028°29'0 0.1 1021.8
2015-Apr-30 04:00N 31°28' W 028°30'3 0.4 1021.8
2015-Apr-29 21:00N 31°25' W 028°30'1 0.2 1023.0
2015-Apr-29 15:00N 31°24' W 028°29'0 0.4 1023.1
2015-Apr-29 14:00N 31°24' W 028°29'1 0.2 1023.4
2015-Apr-29 08:00N 31°24' W 028°31'1 0.9 1022.9
2015-Apr-29 07:00N 31°23' W 028°31'4 0.6 1022.4
2015-Apr-28 23:00N 31°19' W 028°28'0 0.0 1023.9
2015-Apr-28 22:00N 31°19' W 028°28'1 0.3 1023.2
2015-Apr-28 18:00N 31°19' W 028°27'0 0.1 1021.9
2015-Apr-28 14:00N 31°19' W 028°27'2 0.4 1022.8
2015-Apr-28 09:00N 31°18' W 028°28'1 0.3 1022.2
2015-Apr-28 05:00N 31°16' W 028°28'1 0.9 1021.6
2015-Apr-28 04:00N 31°16' W 028°28'4 0.5 1021.9
2015-Apr-27 20:00N 31°13' W 028°24'1 0.2 1021.9
2015-Apr-27 12:00N 31°12' W 028°23'2 0.3 1023.1
2015-Apr-27 07:00N 31°11' W 028°24'1 1.5 1022.0
2015-Apr-27 06:00N 31°10' W 028°23'3 1.4 1021.9
2015-Apr-27 04:00N 31°07' W 028°22'1 0.2 1022.2
2015-Apr-26 23:00N 31°07' W 028°20'1 0.6 1023.6
2015-Apr-26 22:00N 31°08' W 028°21'0 0.0 1023.6
2015-Apr-26 21:00N 31°08' W 028°21'1 0.3 1023.3
2015-Apr-26 16:00N 31°07' W 028°19'1 0.5 1022.4
2015-Apr-26 14:00N 31°07' W 028°19'0 0.5 1023.1
2015-Apr-26 13:00N 31°06' W 028°19'1 0.4 1023.2
2015-Apr-26 09:00N 31°05' W 028°17'1 0.4 1022.6
2015-Apr-26 07:00N 31°05' W 028°17'0 0.1 1022.0
2015-Apr-26 06:00N 31°05' W 028°17'3 0.9 1021.5
2015-Apr-26 03:00N 31°03' W 028°14'5 0.5 1021.7
2015-Apr-25 16:00N 31°04' W 028°08'1 0.3 1018.9
2015-Apr-25 13:00N 31°05' W 028°08'0 0.0 1018.0
2015-Apr-25 12:00N 31°05' W 028°08'0 0.1 1017.6
2015-Apr-25 10:00N 31°04' W 028°08'1 0.3 1016.3
2015-Apr-25 08:00N 31°04' W 028°07'1 0.1 1015.4
2015-Apr-24 22:00N 31°04' W 028°08'1 0.2 1018.0
2015-Apr-24 18:00N 31°03' W 028°09'1 0.5 1017.8
2015-Apr-24 16:00N 31°02' W 028°08'1 1.4 1018.1
2015-Apr-24 15:00N 31°01' W 028°09'1 0.5 1018.7
2015-Apr-24 13:00N 31°00' W 028°08'2 0.2 1019.4
2015-Apr-24 03:00N 30°59' W 028°07'1 0.6 1019.6
2015-Apr-24 02:00N 30°59' W 028°07'1 0.2 1019.7
2015-Apr-23 23:00N 30°58' W 028°07'1 0.4 1019.8
2015-Apr-23 20:00N 30°57' W 028°07'1 0.4 1018.6
2015-Apr-23 16:00N 30°56' W 028°07'2 0.4 1018.7
2015-Apr-23 11:00N 30°54' W 028°06'0 0.0 1019.5
2015-Apr-23 07:00N 30°54' W 028°06'4 0.9 1017.0
2015-Apr-23 03:00N 30°50' W 028°06'1 0.1 1018.0
2015-Apr-22 22:00N 30°50' W 028°05'3 0.4 1018.2
2015-Apr-22 14:00N 30°47' W 028°05'2 0.4 1016.7
2015-Apr-22 09:00N 30°45' W 028°04'0 0.1 1016.6
2015-Apr-22 06:00N 30°45' W 028°04'1 0.7 1015.1
2015-Apr-22 05:00N 30°44' W 028°03'1 1.1 1015.3
2015-Apr-22 04:00N 30°43' W 028°03'3 0.6 1015.4
2015-Apr-21 23:00N 30°40' W 028°02'1 1.1 1018.1
2015-Apr-21 22:00N 30°39' W 028°03'1 1.1 1018.3
2015-Apr-21 21:00N 30°40' W 028°02'1 0.7 1018.1
2015-Apr-21 19:00N 30°39' W 028°03'1 0.5 1018.2
2015-Apr-21 17:00N 30°38' W 028°03'1 1.0 1018.4
2015-Apr-21 16:00N 30°38' W 028°02'1 1.4 1019.1
2015-Apr-21 15:00N 30°37' W 028°03'3 0.5 1020.0
2015-Apr-21 10:00N 30°35' W 028°02'1 0.4 1021.6
2015-Apr-21 08:00N 30°34' W 028°01'1 0.5 1021.2
2015-Apr-21 05:00N 30°33' W 028°01'1 1.2 1021.0
2015-Apr-21 04:00N 30°32' W 027°60'4 0.6 1021.5
2015-Apr-20 22:00N 30°30' W 027°56'   1024.1
Track history (hours):
 
Tides and Currents Weather Stations Pressure Air Temp Water Temp Dewpoint Dewpoint Depression Visibility Wind Speed Wind Dir Waves Ship Positions

Drifting buoy 41560

Last reported at 2015-Apr-30 17:00 UTC. Time now 2015-Aug-31 23:55 UTC.
Position N 31°29' W 028°28'.
Warning: this ship's position is months out of date.

Barometer 1021.6 mb

Date/timePositionNaut miles runAvg speedWind from/ knotsBaromVisibWave heightAir tempDewpointWater temp
2015-Apr-30 17:00N 31°29' W 028°28'0 0.4 1021.6
2015-Apr-30 16:00N 31°29' W 028°28'0 0.0 1022.9
2015-Apr-30 15:00N 31°29' W 028°28'1 0.3 1022.4
2015-Apr-30 12:00N 31°28' W 028°29'1 0.6 1023.2
2015-Apr-30 11:00N 31°29' W 028°30'1 0.3 1022.5
2015-Apr-30 08:00N 31°28' W 028°29'0 0.4 1021.9
2015-Apr-30 07:00N 31°28' W 028°29'1 0.7 1021.8
2015-Apr-30 06:00N 31°28' W 028°30'0 0.3 1022.0
2015-Apr-30 05:00N 31°28' W 028°29'0 0.1 1021.8
2015-Apr-30 04:00N 31°28' W 028°30'3 0.4 1021.8
2015-Apr-29 21:00N 31°25' W 028°30'1 0.2 1023.0
2015-Apr-29 15:00N 31°24' W 028°29'0 0.4 1023.1
2015-Apr-29 14:00N 31°24' W 028°29'1 0.2 1023.4
2015-Apr-29 08:00N 31°24' W 028°31'1 0.9 1022.9
2015-Apr-29 07:00N 31°23' W 028°31'4 0.6 1022.4
2015-Apr-28 23:00N 31°19' W 028°28'0 0.0 1023.9
2015-Apr-28 22:00N 31°19' W 028°28'1 0.3 1023.2
2015-Apr-28 18:00N 31°19' W 028°27'0 0.1 1021.9
2015-Apr-28 14:00N 31°19' W 028°27'2 0.4 1022.8
2015-Apr-28 09:00N 31°18' W 028°28'1 0.3 1022.2
2015-Apr-28 05:00N 31°16' W 028°28'1 0.9 1021.6
2015-Apr-28 04:00N 31°16' W 028°28'4 0.5 1021.9
2015-Apr-27 20:00N 31°13' W 028°24'1 0.2 1021.9
2015-Apr-27 12:00N 31°12' W 028°23'2 0.3 1023.1
2015-Apr-27 07:00N 31°11' W 028°24'1 1.5 1022.0
2015-Apr-27 06:00N 31°10' W 028°23'3 1.4 1021.9
2015-Apr-27 04:00N 31°07' W 028°22'1 0.2 1022.2
2015-Apr-26 23:00N 31°07' W 028°20'1 0.6 1023.6
2015-Apr-26 22:00N 31°08' W 028°21'0 0.0 1023.6
2015-Apr-26 21:00N 31°08' W 028°21'1 0.3 1023.3
2015-Apr-26 16:00N 31°07' W 028°19'1 0.5 1022.4
2015-Apr-26 14:00N 31°07' W 028°19'0 0.5 1023.1
2015-Apr-26 13:00N 31°06' W 028°19'1 0.4 1023.2
2015-Apr-26 09:00N 31°05' W 028°17'1 0.4 1022.6
2015-Apr-26 07:00N 31°05' W 028°17'0 0.1 1022.0
2015-Apr-26 06:00N 31°05' W 028°17'3 0.9 1021.5
2015-Apr-26 03:00N 31°03' W 028°14'5 0.5 1021.7
2015-Apr-25 16:00N 31°04' W 028°08'1 0.3 1018.9
2015-Apr-25 13:00N 31°05' W 028°08'0 0.0 1018.0
2015-Apr-25 12:00N 31°05' W 028°08'0 0.1 1017.6
2015-Apr-25 10:00N 31°04' W 028°08'1 0.3 1016.3
2015-Apr-25 08:00N 31°04' W 028°07'1 0.1 1015.4
2015-Apr-24 22:00N 31°04' W 028°08'1 0.2 1018.0
2015-Apr-24 18:00N 31°03' W 028°09'1 0.5 1017.8
2015-Apr-24 16:00N 31°02' W 028°08'1 1.4 1018.1
2015-Apr-24 15:00N 31°01' W 028°09'1 0.5 1018.7
2015-Apr-24 13:00N 31°00' W 028°08'2 0.2 1019.4
2015-Apr-24 03:00N 30°59' W 028°07'1 0.6 1019.6
2015-Apr-24 02:00N 30°59' W 028°07'1 0.2 1019.7
2015-Apr-23 23:00N 30°58' W 028°07'1 0.4 1019.8
2015-Apr-23 20:00N 30°57' W 028°07'1 0.4 1018.6
2015-Apr-23 16:00N 30°56' W 028°07'2 0.4 1018.7
2015-Apr-23 11:00N 30°54' W 028°06'0 0.0 1019.5
2015-Apr-23 07:00N 30°54' W 028°06'4 0.9 1017.0
2015-Apr-23 03:00N 30°50' W 028°06'1 0.1 1018.0
2015-Apr-22 22:00N 30°50' W 028°05'3 0.4 1018.2
2015-Apr-22 14:00N 30°47' W 028°05'2 0.4 1016.7
2015-Apr-22 09:00N 30°45' W 028°04'0 0.1 1016.6
2015-Apr-22 06:00N 30°45' W 028°04'1 0.7 1015.1
2015-Apr-22 05:00N 30°44' W 028°03'1 1.1 1015.3
2015-Apr-22 04:00N 30°43' W 028°03'3 0.6 1015.4
2015-Apr-21 23:00N 30°40' W 028°02'1 1.1 1018.1
2015-Apr-21 22:00N 30°39' W 028°03'1 1.1 1018.3
2015-Apr-21 21:00N 30°40' W 028°02'1 0.7 1018.1
2015-Apr-21 19:00N 30°39' W 028°03'1 0.5 1018.2
2015-Apr-21 17:00N 30°38' W 028°03'1 1.0 1018.4
2015-Apr-21 16:00N 30°38' W 028°02'1 1.4 1019.1
2015-Apr-21 15:00N 30°37' W 028°03'3 0.5 1020.0
2015-Apr-21 10:00N 30°35' W 028°02'1 0.4 1021.6
2015-Apr-21 08:00N 30°34' W 028°01'1 0.5 1021.2
2015-Apr-21 05:00N 30°33' W 028°01'1 1.2 1021.0
2015-Apr-21 04:00N 30°32' W 027°60'4 0.6 1021.5
2015-Apr-20 22:00N 30°30' W 027°56'   1024.1

Dump ship's entire track history